Map

Track Data

SID SEASON NUMBER BASIN SUBBASIN NAME ISO_TIME NATURE LAT LON WMO_WIND WMO_PRES WMO_AGENCY TRACK_TYPE DIST2LAND LANDFALL IFLAG USA_AGENCY USA_ATCF_ID USA_LAT USA_LON USA_RECORD USA_STATUS USA_WIND USA_PRES USA_SSHS USA_R34_NE USA_R34_SE USA_R34_SW USA_R34_NW USA_R50_NE USA_R50_SE USA_R50_SW USA_R50_NW USA_R64_NE USA_R64_SE USA_R64_SW USA_R64_NW USA_POCI USA_ROCI USA_RMW USA_EYE TOKYO_LAT TOKYO_LON TOKYO_GRADE TOKYO_WIND TOKYO_PRES TOKYO_R50_DIR TOKYO_R50_LONG TOKYO_R50_SHORT TOKYO_R30_DIR TOKYO_R30_LONG TOKYO_R30_SHORT TOKYO_LAND CMA_LAT CMA_LON CMA_CAT CMA_WIND CMA_PRES HKO_LAT HKO_LON HKO_CAT HKO_WIND HKO_PRES NEWDELHI_LAT NEWDELHI_LON NEWDELHI_GRADE NEWDELHI_WIND NEWDELHI_PRES NEWDELHI_CI NEWDELHI_DP NEWDELHI_POCI REUNION_LAT REUNION_LON REUNION_TYPE REUNION_WIND REUNION_PRES REUNION_TNUM REUNION_CI REUNION_RMW REUNION_R34_NE REUNION_R34_SE REUNION_R34_SW REUNION_R34_NW REUNION_R50_NE REUNION_R50_SE REUNION_R50_SW REUNION_R50_NW REUNION_R64_NE REUNION_R64_SE REUNION_R64_SW REUNION_R64_NW BOM_LAT BOM_LON BOM_TYPE BOM_WIND BOM_PRES BOM_TNUM BOM_CI BOM_RMW BOM_R34_NE BOM_R34_SE BOM_R34_SW BOM_R34_NW BOM_R50_NE BOM_R50_SE BOM_R50_SW BOM_R50_NW BOM_R64_NE BOM_R64_SE BOM_R64_SW BOM_R64_NW BOM_ROCI BOM_POCI BOM_EYE BOM_POS_METHOD BOM_PRES_METHOD NADI_LAT NADI_LON NADI_CAT NADI_WIND NADI_PRES WELLINGTON_LAT WELLINGTON_LON WELLINGTON_WIND WELLINGTON_PRES DS824_LAT DS824_LON DS824_STAGE DS824_WIND DS824_PRES TD9636_LAT TD9636_LON TD9636_STAGE TD9636_WIND TD9636_PRES TD9635_LAT TD9635_LON TD9635_WIND TD9635_PRES TD9635_ROCI NEUMANN_LAT NEUMANN_LON NEUMANN_CLASS NEUMANN_WIND NEUMANN_PRES MLC_LAT MLC_LON MLC_CLASS MLC_WIND MLC_PRES USA_GUST BOM_GUST BOM_GUST_PER REUNION_GUST REUNION_GUST_PER USA_SEAHGT USA_SEARAD_NE USA_SEARAD_SE USA_SEARAD_SW USA_SEARAD_NW STORM_SPEED STORM_DIR
1923123N13138 1923 30 WP MM NOT_NAMED 1923-05-02 22:00:00 NR 12.7000 138.400 main 1385 1385 __________O___ -1 12.7000 138.400 4 5 7
1923123N13138 1923 30 WP MM NOT_NAMED 1923-05-03 00:00:00 NR 12.8522 138.417 main 1387 1387 __________P___ -1 12.8522 138.417 4 5 6
1923123N13138 1923 30 WP MM NOT_NAMED 1923-05-03 03:00:00 NR 13.0796 138.442 main 1390 1390 __________P___ -1 13.0796 138.442 4 5 7
1923123N13138 1923 30 WP MM NOT_NAMED 1923-05-03 06:00:00 NR 13.3049 138.467 main 1405 1405 __________P___ -1 13.3049 138.467 4 5 7
1923123N13138 1923 30 WP MM NOT_NAMED 1923-05-03 09:00:00 NR 13.5270 138.492 main 1408 1408 __________P___ -1 13.5270 138.492 4 4 9
1923123N13138 1923 30 WP MM NOT_NAMED 1923-05-03 10:00:00 NR 13.6000 138.500 main 1410 1410 __________O___ -1 13.6000 138.500 4 4 0
1923123N13138 1923 30 WP MM NOT_NAMED 1923-05-03 12:00:00 NR 13.7448 138.517 main 1412 1415 __________P___ -1 13.7448 138.517 4 4 7
1923123N13138 1923 30 WP MM NOT_NAMED 1923-05-03 15:00:00 NR 13.9618 138.542 main 1419 1419 __________P___ -1 13.9618 138.542 4 4 7
1923123N13138 1923 30 WP MM NOT_NAMED 1923-05-03 18:00:00 NR 14.1842 138.567 main 1435 1435 __________P___ -1 14.1842 138.567 4 5 7
1923123N13138 1923 30 WP MM NOT_NAMED 1923-05-03 21:00:00 NR 14.4183 138.592 main 1439 1439 __________P___ -1 14.4183 138.592 4 5 8
1923123N13138 1923 30 WP MM NOT_NAMED 1923-05-03 22:00:00 NR 14.5000 138.600 main 1441 1441 __________O___ -1 14.5000 138.600 4 5 0
1923123N13138 1923 30 WP MM NOT_NAMED 1923-05-04 00:00:00 NR 14.6693 138.617 main 1444 1444 __________P___ -1 14.6693 138.617 4 5 4
1923123N13138 1923 30 WP MM NOT_NAMED 1923-05-04 03:00:00 NR 14.9358 138.642 main 1448 1450 __________P___ -1 14.9358 138.642 4 6 4
1923123N13138 1923 30 WP MM NOT_NAMED 1923-05-04 06:00:00 NR 15.2146 138.667 main 1465 1465 __________P___ -1 15.2146 138.667 4 6 4
1923123N13138 1923 30 WP MM NOT_NAMED 1923-05-04 09:00:00 NR 15.5025 138.692 main 1472 1472 __________P___ -1 15.5025 138.692 4 6 6
1923123N13138 1923 30 WP MM NOT_NAMED 1923-05-04 10:00:00 NR 15.6000 138.700 main 1475 1475 __________O___ -1 15.6000 138.700 4 6 0
1923123N13138 1923 30 WP MM NOT_NAMED 1923-05-04 12:00:00 NR 15.7917 138.714 main 1480 1480 __________P___ -1 15.7917 138.714 4 6 6
1923123N13138 1923 30 WP MM NOT_NAMED 1923-05-04 15:00:00 NR 16.0854 138.735 main 1488 1488 __________P___ -1 16.0854 138.735 4 6 3
1923123N13138 1923 30 WP MM NOT_NAMED 1923-05-04 18:00:00 NR 16.3867 138.759 main 1508 1508 __________P___ -1 16.3867 138.759 4 6 6
1923123N13138 1923 30 WP MM NOT_NAMED 1923-05-04 21:00:00 NR 16.6954 138.788 main 1518 1518 __________P___ -1 16.6954 138.788 4 6 5
1923123N13138 1923 30 WP MM NOT_NAMED 1923-05-04 22:00:00 NR 16.8000 138.800 main 1521 1521 __________O___ -1 16.8000 138.800 4 6 8
1923123N13138 1923 30 WP MM NOT_NAMED 1923-05-05 00:00:00 NR 17.0136 138.828 main 1528 1528 __________P___ -1 17.0136 138.828 4 7 8
1923123N13138 1923 30 WP MM NOT_NAMED 1923-05-05 03:00:00 NR 17.3403 138.875 main 1549 1553 __________P___ -1 17.3403 138.875 4 7 9
1923123N13138 1923 30 WP MM NOT_NAMED 1923-05-05 06:00:00 NR 17.6691 138.928 main 1565 1565 __________P___ -1 17.6691 138.928 4 7 9
1923123N13138 1923 30 WP MM NOT_NAMED 1923-05-05 09:00:00 NR 17.9938 138.982 main 1587 1587 __________P___ -1 17.9938 138.982 4 7 10
1923123N13138 1923 30 WP MM NOT_NAMED 1923-05-05 10:00:00 NR 18.1000 139.000 main 1592 1592 __________O___ -1 18.1000 139.000 4 6 10
1923123N13138 1923 30 WP MM NOT_NAMED 1923-05-05 12:00:00 NR 18.2978 139.033 main 1600 1600 __________P___ -1 18.2978 139.033 4 6 9
1923123N13138 1923 30 WP MM NOT_NAMED 1923-05-05 15:00:00 NR 18.5881 139.083 main 1622 1593 __________P___ -1 18.5881 139.083 4 6 10
1923123N13138 1923 30 WP MM NOT_NAMED 1923-05-05 18:00:00 NR 18.8817 139.133 main 1593 1570 __________P___ -1 18.8817 139.133 4 6 9
1923123N13138 1923 30 WP MM NOT_NAMED 1923-05-05 21:00:00 NR 19.1912 139.183 main 1570 1560 __________P___ -1 19.1912 139.183 4 6 10
1923123N13138 1923 30 WP MM NOT_NAMED 1923-05-05 22:00:00 NR 19.3000 139.200 main 1560 1541 __________O___ -1 19.3000 139.200 4 7 6
1923123N13138 1923 30 WP MM NOT_NAMED 1923-05-06 00:00:00 NR 19.5407 139.233 main 1541 1507 __________P___ -1 19.5407 139.233 4 8 7
1923123N13138 1923 30 WP MM NOT_NAMED 1923-05-06 03:00:00 NR 19.9209 139.283 main 1507 1468 __________P___ -1 19.9209 139.283 4 8 7
1923123N13138 1923 30 WP MM NOT_NAMED 1923-05-06 06:00:00 NR 20.3074 139.333 main 1468 1436 __________P___ -1 20.3074 139.333 4 8 7
1923123N13138 1923 30 WP MM NOT_NAMED 1923-05-06 09:00:00 NR 20.6814 139.383 main 1436 1426 __________P___ -1 20.6814 139.383 4 7 6
1923123N13138 1923 30 WP MM NOT_NAMED 1923-05-06 10:00:00 NR 20.8000 139.400 main 1426 1417 __________O___ -1 20.8000 139.400 4 5 3
1923123N13138 1923 30 WP MM NOT_NAMED 1923-05-06 12:00:00 NR 20.9434 139.386 main 1417 1398 __________P___ -1 20.9434 139.386 4 4 353
1923123N13138 1923 30 WP MM NOT_NAMED 1923-05-06 15:00:00 NR 21.1380 139.363 main 1398 1370 __________P___ -1 21.1380 139.363 4 5 2
1923123N13138 1923 30 WP MM NOT_NAMED 1923-05-06 18:00:00 NR 21.3942 139.389 main 1370 1339 __________P___ -1 21.3942 139.389 4 7 12
1923123N13138 1923 30 WP MM NOT_NAMED 1923-05-06 21:00:00 NR 21.8095 139.522 main 1339 1326 __________P___ -1 21.8095 139.522 4 10 18
1923123N13138 1923 30 WP MM NOT_NAMED 1923-05-06 22:00:00 NR 22.0000 139.600 main 1326 1278 __________O___ -1 22.0000 139.600 4 15 20
1923123N13138 1923 30 WP MM NOT_NAMED 1923-05-07 00:00:00 NR 22.5276 139.809 main 1278 1185 __________P___ -1 22.5276 139.809 4 19 22
1923123N13138 1923 30 WP MM NOT_NAMED 1923-05-07 03:00:00 NR 23.4962 140.243 main 1185 1095 __________P___ -1 23.4962 140.243 4 23 24
1923123N13138 1923 30 WP MM NOT_NAMED 1923-05-07 06:00:00 NR 24.5773 140.801 main 1095 1020 __________P___ -1 24.5773 140.801 4 24 27
1923123N13138 1923 30 WP MM NOT_NAMED 1923-05-07 09:00:00 NR 25.6588 141.462 main 1020 1006 __________P___ -1 25.6588 141.462 4 25 30
1923123N13138 1923 30 WP MM NOT_NAMED 1923-05-07 10:00:00 NR 26.0000 141.700 main 998 949 __________O___ -1 26.0000 141.700 4 24 34
1923123N13138 1923 30 WP MM NOT_NAMED 1923-05-07 12:00:00 NR 26.6362 142.199 main 949 876 __________P___ -1 26.6362 142.199 4 23 38
1923123N13138 1923 30 WP MM NOT_NAMED 1923-05-07 15:00:00 NR 27.4904 142.995 main 876 823 __________P___ -1 27.4904 142.995 4 22 42
1923123N13138 1923 30 WP MM NOT_NAMED 1923-05-07 18:00:00 NR 28.2559 143.835 main 823 798 __________P___ -1 28.2559 143.835 4 21 46
1923123N13138 1923 30 WP MM NOT_NAMED 1923-05-07 21:00:00 NR 28.9683 144.706 main 798 796 __________P___ -1 28.9683 144.706 4 21 47
1923123N13138 1923 30 WP MM NOT_NAMED 1923-05-07 22:00:00 NR 29.2000 145.000 main 796 __________O___ -1 29.2000 145.000 4 21 48

Digital Typhoon Data and Search

About IBTrACS Database

This database is a web-friendly format of International Best Track Archive for Climate Stewardship (IBTrACS), a global best track data archive curated by NOAA dating back to 1842.

Updated: 2021-10-27